sensor_id;sensor_type;location;lat;lon;timestamp;P1;durP1;ratioP1;P2;durP2;ratioP2
76548;SDS011;65391;52.068;4.542;2022-12-07T00:00:17;6.9;;;1.2;;
76548;SDS011;65391;52.068;4.542;2022-12-07T00:02:41;6.9;;;1.2;;
76548;SDS011;65391;52.068;4.542;2022-12-07T00:05:07;6.9;;;1.2;;
76548;SDS011;65391;52.068;4.542;2022-12-07T00:07:31;6.5;;;1.5;;
76548;SDS011;65391;52.068;4.542;2022-12-07T00:09:56;6.5;;;1.5;;
76548;SDS011;65391;52.068;4.542;2022-12-07T00:12:21;6.5;;;1.5;;
76548;SDS011;65391;52.068;4.542;2022-12-07T00:14:46;6.5;;;1.5;;
76548;SDS011;65391;52.068;4.542;2022-12-07T00:17:11;6.8;;;1.3;;
76548;SDS011;65391;52.068;4.542;2022-12-07T00:19:36;6.8;;;1.3;;
76548;SDS011;65391;52.068;4.542;2022-12-07T00:22:01;6.8;;;1.3;;
76548;SDS011;65391;52.068;4.542;2022-12-07T00:24:26;6.8;;;1.3;;
76548;SDS011;65391;52.068;4.542;2022-12-07T00:26:51;6.8;;;1.3;;
76548;SDS011;65391;52.068;4.542;2022-12-07T00:29:17;7.1;;;1.2;;
76548;SDS011;65391;52.068;4.542;2022-12-07T00:31:41;7.1;;;1.2;;
76548;SDS011;65391;52.068;4.542;2022-12-07T00:34:06;7.1;;;1.2;;
76548;SDS011;65391;52.068;4.542;2022-12-07T00:36:31;7.1;;;1.2;;
76548;SDS011;65391;52.068;4.542;2022-12-07T00:38:57;7;;;1.1;;
76548;SDS011;65391;52.068;4.542;2022-12-07T00:41:22;7;;;1.1;;
76548;SDS011;65391;52.068;4.542;2022-12-07T00:43:47;7;;;1.1;;
76548;SDS011;65391;52.068;4.542;2022-12-07T00:46:11;7;;;1.1;;
76548;SDS011;65391;52.068;4.542;2022-12-07T00:48:36;8;;;1.3;;
76548;SDS011;65391;52.068;4.542;2022-12-07T00:51:01;8;;;1.3;;
76548;SDS011;65391;52.068;4.542;2022-12-07T00:53:26;8;;;1.3;;
76548;SDS011;65391;52.068;4.542;2022-12-07T00:55:51;8;;;1.3;;
76548;SDS011;65391;52.068;4.542;2022-12-07T00:58:16;5.6;;;0.5;;
76548;SDS011;65391;52.068;4.542;2022-12-07T01:00:42;5.6;;;0.5;;
76548;SDS011;65391;52.068;4.542;2022-12-07T01:03:08;5.6;;;0.5;;
76548;SDS011;65391;52.068;4.542;2022-12-07T01:05:31;5.6;;;0.5;;
76548;SDS011;65391;52.068;4.542;2022-12-07T01:07:56;3.3;;;0.3;;
76548;SDS011;65391;52.068;4.542;2022-12-07T01:10:21;3.3;;;0.3;;
76548;SDS011;65391;52.068;4.542;2022-12-07T01:12:46;3.3;;;0.3;;
76548;SDS011;65391;52.068;4.542;2022-12-07T01:15:11;3.3;;;0.3;;
76548;SDS011;65391;52.068;4.542;2022-12-07T01:17:36;3.8;;;0.4;;
76548;SDS011;65391;52.068;4.542;2022-12-07T01:20:02;3.8;;;0.4;;
76548;SDS011;65391;52.068;4.542;2022-12-07T01:22:26;3.8;;;0.4;;
76548;SDS011;65391;52.068;4.542;2022-12-07T01:24:51;3.8;;;0.4;;
76548;SDS011;65391;52.068;4.542;2022-12-07T01:27:16;5.5;;;0.4;;
76548;SDS011;65391;52.068;4.542;2022-12-07T01:29:41;5.5;;;0.4;;
76548;SDS011;65391;52.068;4.542;2022-12-07T01:32:06;5.5;;;0.4;;
76548;SDS011;65391;52.068;4.542;2022-12-07T01:34:31;5.5;;;0.4;;
76548;SDS011;65391;52.068;4.542;2022-12-07T01:36:56;5.5;;;0.4;;
76548;SDS011;65391;52.068;4.542;2022-12-07T01:39:21;4.7;;;0.6;;
76548;SDS011;65391;52.068;4.542;2022-12-07T01:41:46;4.7;;;0.6;;
76548;SDS011;65391;52.068;4.542;2022-12-07T01:44:15;4.7;;;0.6;;
76548;SDS011;65391;52.068;4.542;2022-12-07T01:46:36;4.7;;;0.6;;
76548;SDS011;65391;52.068;4.542;2022-12-07T01:49:01;8.5;;;0.5;;
76548;SDS011;65391;52.068;4.542;2022-12-07T01:51:26;8.5;;;0.5;;
76548;SDS011;65391;52.068;4.542;2022-12-07T01:53:51;8.5;;;0.5;;
76548;SDS011;65391;52.068;4.542;2022-12-07T01:56:18;8.5;;;0.5;;
76548;SDS011;65391;52.068;4.542;2022-12-07T01:58:41;6.6;;;0.7;;
76548;SDS011;65391;52.068;4.542;2022-12-07T02:01:06;6.6;;;0.7;;
76548;SDS011;65391;52.068;4.542;2022-12-07T02:03:32;6.6;;;0.7;;
76548;SDS011;65391;52.068;4.542;2022-12-07T02:05:56;6.6;;;0.7;;
76548;SDS011;65391;52.068;4.542;2022-12-07T02:08:21;6;;;1.5;;
76548;SDS011;65391;52.068;4.542;2022-12-07T02:10:46;6;;;1.5;;
76548;SDS011;65391;52.068;4.542;2022-12-07T02:13:13;6;;;1.5;;
76548;SDS011;65391;52.068;4.542;2022-12-07T02:15:45;6;;;1.5;;
76548;SDS011;65391;52.068;4.542;2022-12-07T02:18:05;6;;;0.7;;
76548;SDS011;65391;52.068;4.542;2022-12-07T02:20:28;6;;;0.7;;
76548;SDS011;65391;52.068;4.542;2022-12-07T02:23:00;6;;;0.7;;
76548;SDS011;65391;52.068;4.542;2022-12-07T02:25:22;6;;;0.7;;
76548;SDS011;65391;52.068;4.542;2022-12-07T02:27:45;2;;;0.3;;
76548;SDS011;65391;52.068;4.542;2022-12-07T02:30:07;2;;;0.3;;
76548;SDS011;65391;52.068;4.542;2022-12-07T02:32:39;2;;;0.3;;
76548;SDS011;65391;52.068;4.542;2022-12-07T02:34:59;2;;;0.3;;
76548;SDS011;65391;52.068;4.542;2022-12-07T02:37:27;3.6;;;0.4;;
76548;SDS011;65391;52.068;4.542;2022-12-07T02:39:48;3.6;;;0.4;;
76548;SDS011;65391;52.068;4.542;2022-12-07T02:42:14;3.6;;;0.4;;
76548;SDS011;65391;52.068;4.542;2022-12-07T02:44:36;3.6;;;0.4;;
76548;SDS011;65391;52.068;4.542;2022-12-07T02:47:03;3.6;;;0.4;;
76548;SDS011;65391;52.068;4.542;2022-12-07T02:49:33;7;;;1.3;;
76548;SDS011;65391;52.068;4.542;2022-12-07T02:51:51;7;;;1.3;;
76548;SDS011;65391;52.068;4.542;2022-12-07T02:54:18;7;;;1.3;;
76548;SDS011;65391;52.068;4.542;2022-12-07T02:56:44;7;;;1.3;;
76548;SDS011;65391;52.068;4.542;2022-12-07T02:59:10;2.6;;;0.4;;
76548;SDS011;65391;52.068;4.542;2022-12-07T03:01:35;2.6;;;0.4;;
76548;SDS011;65391;52.068;4.542;2022-12-07T03:03:58;2.6;;;0.4;;
76548;SDS011;65391;52.068;4.542;2022-12-07T03:06:22;2.6;;;0.4;;
76548;SDS011;65391;52.068;4.542;2022-12-07T03:08:51;10.5;;;1.6;;
76548;SDS011;65391;52.068;4.542;2022-12-07T03:11:12;10.5;;;1.6;;
76548;SDS011;65391;52.068;4.542;2022-12-07T03:13:38;10.5;;;1.6;;
76548;SDS011;65391;52.068;4.542;2022-12-07T03:16:02;10.5;;;1.6;;
76548;SDS011;65391;52.068;4.542;2022-12-07T03:18:28;5.5;;;0.5;;
76548;SDS011;65391;52.068;4.542;2022-12-07T03:20:53;5.5;;;0.5;;
76548;SDS011;65391;52.068;4.542;2022-12-07T03:23:16;5.5;;;0.5;;
76548;SDS011;65391;52.068;4.542;2022-12-07T03:25:43;5.5;;;0.5;;
76548;SDS011;65391;52.068;4.542;2022-12-07T03:28:06;8.3;;;0.6;;
76548;SDS011;65391;52.068;4.542;2022-12-07T03:30:33;8.3;;;0.6;;
76548;SDS011;65391;52.068;4.542;2022-12-07T03:32:58;8.3;;;0.6;;
76548;SDS011;65391;52.068;4.542;2022-12-07T03:35:23;8.3;;;0.6;;
76548;SDS011;65391;52.068;4.542;2022-12-07T03:37:48;10.5;;;1.6;;
76548;SDS011;65391;52.068;4.542;2022-12-07T03:40:13;10.5;;;1.6;;
76548;SDS011;65391;52.068;4.542;2022-12-07T03:42:36;10.5;;;1.6;;
76548;SDS011;65391;52.068;4.542;2022-12-07T03:45:02;10.5;;;1.6;;
76548;SDS011;65391;52.068;4.542;2022-12-07T03:47:28;8.3;;;0.7;;
76548;SDS011;65391;52.068;4.542;2022-12-07T03:49:54;8.3;;;0.7;;
76548;SDS011;65391;52.068;4.542;2022-12-07T03:52:18;8.3;;;0.7;;
76548;SDS011;65391;52.068;4.542;2022-12-07T03:54:44;8.3;;;0.7;;
76548;SDS011;65391;52.068;4.542;2022-12-07T03:57:06;8.3;;;0.7;;
76548;SDS011;65391;52.068;4.542;2022-12-07T03:59:31;5.6;;;0.8;;
76548;SDS011;65391;52.068;4.542;2022-12-07T04:01:57;5.6;;;0.8;;
76548;SDS011;65391;52.068;4.542;2022-12-07T04:04:22;5.6;;;0.8;;
76548;SDS011;65391;52.068;4.542;2022-12-07T04:06:46;5.6;;;0.8;;
76548;SDS011;65391;52.068;4.542;2022-12-07T04:09:11;4.2;;;0.5;;
76548;SDS011;65391;52.068;4.542;2022-12-07T04:11:37;4.2;;;0.5;;
76548;SDS011;65391;52.068;4.542;2022-12-07T04:14:01;4.2;;;0.5;;
76548;SDS011;65391;52.068;4.542;2022-12-07T04:16:26;4.2;;;0.5;;
76548;SDS011;65391;52.068;4.542;2022-12-07T04:18:51;11.1;;;1;;
76548;SDS011;65391;52.068;4.542;2022-12-07T04:21:16;11.1;;;1;;
76548;SDS011;65391;52.068;4.542;2022-12-07T04:23:41;11.1;;;1;;
76548;SDS011;65391;52.068;4.542;2022-12-07T04:26:06;11.1;;;1;;
76548;SDS011;65391;52.068;4.542;2022-12-07T04:28:31;3.3;;;0.6;;
76548;SDS011;65391;52.068;4.542;2022-12-07T04:30:56;3.3;;;0.6;;
76548;SDS011;65391;52.068;4.542;2022-12-07T04:33:21;3.3;;;0.6;;
76548;SDS011;65391;52.068;4.542;2022-12-07T04:35:46;3.3;;;0.6;;
76548;SDS011;65391;52.068;4.542;2022-12-07T04:38:11;6.8;;;0.8;;
76548;SDS011;65391;52.068;4.542;2022-12-07T04:40:36;6.8;;;0.8;;
76548;SDS011;65391;52.068;4.542;2022-12-07T04:43:01;6.8;;;0.8;;
76548;SDS011;65391;52.068;4.542;2022-12-07T04:45:26;6.8;;;0.8;;
76548;SDS011;65391;52.068;4.542;2022-12-07T04:47:51;5.1;;;1.4;;
76548;SDS011;65391;52.068;4.542;2022-12-07T04:50:16;5.1;;;1.4;;
76548;SDS011;65391;52.068;4.542;2022-12-07T04:52:41;5.1;;;1.4;;
76548;SDS011;65391;52.068;4.542;2022-12-07T04:55:07;5.1;;;1.4;;
76548;SDS011;65391;52.068;4.542;2022-12-07T04:57:31;4.4;;;0.7;;
76548;SDS011;65391;52.068;4.542;2022-12-07T04:59:56;4.4;;;0.7;;
76548;SDS011;65391;52.068;4.542;2022-12-07T05:02:21;4.4;;;0.7;;
76548;SDS011;65391;52.068;4.542;2022-12-07T05:04:46;4.4;;;0.7;;
76548;SDS011;65391;52.068;4.542;2022-12-07T05:07:11;4.4;;;0.7;;
76548;SDS011;65391;52.068;4.542;2022-12-07T05:09:36;2;;;0.4;;
76548;SDS011;65391;52.068;4.542;2022-12-07T05:12:01;2;;;0.4;;
76548;SDS011;65391;52.068;4.542;2022-12-07T05:14:26;2;;;0.4;;
76548;SDS011;65391;52.068;4.542;2022-12-07T05:16:51;2;;;0.4;;
76548;SDS011;65391;52.068;4.542;2022-12-07T05:19:17;6.2;;;0.4;;
76548;SDS011;65391;52.068;4.542;2022-12-07T05:21:41;6.2;;;0.4;;
76548;SDS011;65391;52.068;4.542;2022-12-07T05:24:07;6.2;;;0.4;;
76548;SDS011;65391;52.068;4.542;2022-12-07T05:26:31;6.2;;;0.4;;
76548;SDS011;65391;52.068;4.542;2022-12-07T05:28:57;4.8;;;0.6;;
76548;SDS011;65391;52.068;4.542;2022-12-07T05:31:22;4.8;;;0.6;;
76548;SDS011;65391;52.068;4.542;2022-12-07T05:33:46;4.8;;;0.6;;
76548;SDS011;65391;52.068;4.542;2022-12-07T05:36:12;4.8;;;0.6;;
76548;SDS011;65391;52.068;4.542;2022-12-07T05:38:36;5.4;;;1.3;;
76548;SDS011;65391;52.068;4.542;2022-12-07T05:41:02;5.4;;;1.3;;
76548;SDS011;65391;52.068;4.542;2022-12-07T05:43:26;5.4;;;1.3;;
76548;SDS011;65391;52.068;4.542;2022-12-07T05:45:51;5.4;;;1.3;;
76548;SDS011;65391;52.068;4.542;2022-12-07T05:48:16;7.5;;;0.8;;
76548;SDS011;65391;52.068;4.542;2022-12-07T05:50:41;7.5;;;0.8;;
76548;SDS011;65391;52.068;4.542;2022-12-07T05:53:07;7.5;;;0.8;;
76548;SDS011;65391;52.068;4.542;2022-12-07T05:55:31;7.5;;;0.8;;
76548;SDS011;65391;52.068;4.542;2022-12-07T05:57:57;5.5;;;0.8;;
76548;SDS011;65391;52.068;4.542;2022-12-07T06:00:22;5.5;;;0.8;;
76548;SDS011;65391;52.068;4.542;2022-12-07T06:02:46;5.5;;;0.8;;
76548;SDS011;65391;52.068;4.542;2022-12-07T06:05:12;5.5;;;0.8;;
76548;SDS011;65391;52.068;4.542;2022-12-07T06:07:37;5.5;;;0.8;;
76548;SDS011;65391;52.068;4.542;2022-12-07T06:10:02;7.5;;;1.3;;
76548;SDS011;65391;52.068;4.542;2022-12-07T06:12:27;7.5;;;1.3;;
76548;SDS011;65391;52.068;4.542;2022-12-07T06:14:52;7.5;;;1.3;;
76548;SDS011;65391;52.068;4.542;2022-12-07T06:17:17;7.5;;;1.3;;
76548;SDS011;65391;52.068;4.542;2022-12-07T06:19:42;3.5;;;1;;
76548;SDS011;65391;52.068;4.542;2022-12-07T06:22:07;3.5;;;1;;
76548;SDS011;65391;52.068;4.542;2022-12-07T06:24:32;3.5;;;1;;
76548;SDS011;65391;52.068;4.542;2022-12-07T06:26:57;3.5;;;1;;
76548;SDS011;65391;52.068;4.542;2022-12-07T06:29:22;7.3;;;0.8;;
76548;SDS011;65391;52.068;4.542;2022-12-07T06:31:47;7.3;;;0.8;;
76548;SDS011;65391;52.068;4.542;2022-12-07T06:34:13;7.3;;;0.8;;
76548;SDS011;65391;52.068;4.542;2022-12-07T06:36:37;7.3;;;0.8;;
76548;SDS011;65391;52.068;4.542;2022-12-07T06:39:02;7.3;;;1.9;;
76548;SDS011;65391;52.068;4.542;2022-12-07T06:41:27;7.3;;;1.9;;
76548;SDS011;65391;52.068;4.542;2022-12-07T06:43:52;7.3;;;1.9;;
76548;SDS011;65391;52.068;4.542;2022-12-07T06:46:17;7.3;;;1.9;;
76548;SDS011;65391;52.068;4.542;2022-12-07T06:48:42;10.5;;;0.9;;
76548;SDS011;65391;52.068;4.542;2022-12-07T06:51:07;10.5;;;0.9;;
76548;SDS011;65391;52.068;4.542;2022-12-07T06:53:32;10.5;;;0.9;;
76548;SDS011;65391;52.068;4.542;2022-12-07T06:55:57;10.5;;;0.9;;
76548;SDS011;65391;52.068;4.542;2022-12-07T06:58:22;5.8;;;0.7;;
76548;SDS011;65391;52.068;4.542;2022-12-07T07:00:47;5.8;;;0.7;;
76548;SDS011;65391;52.068;4.542;2022-12-07T07:03:12;5.8;;;0.7;;
76548;SDS011;65391;52.068;4.542;2022-12-07T07:05:37;5.8;;;0.7;;
76548;SDS011;65391;52.068;4.542;2022-12-07T07:08:02;3.7;;;0.5;;
76548;SDS011;65391;52.068;4.542;2022-12-07T07:10:27;3.7;;;0.5;;
76548;SDS011;65391;52.068;4.542;2022-12-07T07:12:52;3.7;;;0.5;;
76548;SDS011;65391;52.068;4.542;2022-12-07T07:15:17;3.7;;;0.5;;
76548;SDS011;65391;52.068;4.542;2022-12-07T07:17:42;3.7;;;0.5;;
76548;SDS011;65391;52.068;4.542;2022-12-07T07:20:07;5.2;;;0.6;;
76548;SDS011;65391;52.068;4.542;2022-12-07T07:22:32;5.2;;;0.6;;
76548;SDS011;65391;52.068;4.542;2022-12-07T07:24:57;5.2;;;0.6;;
76548;SDS011;65391;52.068;4.542;2022-12-07T07:27:22;5.2;;;0.6;;
76548;SDS011;65391;52.068;4.542;2022-12-07T07:29:47;7.5;;;0.6;;
76548;SDS011;65391;52.068;4.542;2022-12-07T07:32:12;7.5;;;0.6;;
76548;SDS011;65391;52.068;4.542;2022-12-07T07:34:37;7.5;;;0.6;;
76548;SDS011;65391;52.068;4.542;2022-12-07T07:37:02;7.5;;;0.6;;
76548;SDS011;65391;52.068;4.542;2022-12-07T07:39:27;7.4;;;1.3;;
76548;SDS011;65391;52.068;4.542;2022-12-07T07:41:52;7.4;;;1.3;;
76548;SDS011;65391;52.068;4.542;2022-12-07T07:44:17;7.4;;;1.3;;
76548;SDS011;65391;52.068;4.542;2022-12-07T07:46:42;7.4;;;1.3;;
76548;SDS011;65391;52.068;4.542;2022-12-07T07:49:08;4.3;;;0.7;;
76548;SDS011;65391;52.068;4.542;2022-12-07T07:51:32;4.3;;;0.7;;
76548;SDS011;65391;52.068;4.542;2022-12-07T07:53:57;4.3;;;0.7;;
76548;SDS011;65391;52.068;4.542;2022-12-07T07:56:22;4.3;;;0.7;;
76548;SDS011;65391;52.068;4.542;2022-12-07T07:58:47;11.7;;;1.5;;
76548;SDS011;65391;52.068;4.542;2022-12-07T08:01:12;11.7;;;1.5;;
76548;SDS011;65391;52.068;4.542;2022-12-07T08:03:37;11.7;;;1.5;;
76548;SDS011;65391;52.068;4.542;2022-12-07T08:06:02;11.7;;;1.5;;
76548;SDS011;65391;52.068;4.542;2022-12-07T08:08:27;3.8;;;0.6;;
76548;SDS011;65391;52.068;4.542;2022-12-07T08:10:52;3.8;;;0.6;;
76548;SDS011;65391;52.068;4.542;2022-12-07T08:13:17;3.8;;;0.6;;
76548;SDS011;65391;52.068;4.542;2022-12-07T08:15:43;3.8;;;0.6;;
76548;SDS011;65391;52.068;4.542;2022-12-07T08:18:07;7.9;;;1.5;;
76548;SDS011;65391;52.068;4.542;2022-12-07T08:20:32;7.9;;;1.5;;
76548;SDS011;65391;52.068;4.542;2022-12-07T08:22:57;7.9;;;1.5;;
76548;SDS011;65391;52.068;4.542;2022-12-07T08:25:22;7.9;;;1.5;;
76548;SDS011;65391;52.068;4.542;2022-12-07T08:27:47;7.9;;;1.5;;
76548;SDS011;65391;52.068;4.542;2022-12-07T08:30:12;8.5;;;0.8;;
76548;SDS011;65391;52.068;4.542;2022-12-07T08:32:37;8.5;;;0.8;;
76548;SDS011;65391;52.068;4.542;2022-12-07T08:35:02;8.5;;;0.8;;
76548;SDS011;65391;52.068;4.542;2022-12-07T08:37:27;8.5;;;0.8;;
76548;SDS011;65391;52.068;4.542;2022-12-07T08:39:53;2.8;;;0.5;;
76548;SDS011;65391;52.068;4.542;2022-12-07T08:42:17;2.8;;;0.5;;
76548;SDS011;65391;52.068;4.542;2022-12-07T08:44:42;2.8;;;0.5;;
76548;SDS011;65391;52.068;4.542;2022-12-07T08:47:07;2.8;;;0.5;;
76548;SDS011;65391;52.068;4.542;2022-12-07T08:49:33;2.7;;;0.3;;
76548;SDS011;65391;52.068;4.542;2022-12-07T08:51:57;2.7;;;0.3;;
76548;SDS011;65391;52.068;4.542;2022-12-07T08:54:22;2.7;;;0.3;;
76548;SDS011;65391;52.068;4.542;2022-12-07T08:56:47;2.7;;;0.3;;
76548;SDS011;65391;52.068;4.542;2022-12-07T08:59:12;3.7;;;0.8;;
76548;SDS011;65391;52.068;4.542;2022-12-07T09:01:37;3.7;;;0.8;;
76548;SDS011;65391;52.068;4.542;2022-12-07T09:04:02;3.7;;;0.8;;
76548;SDS011;65391;52.068;4.542;2022-12-07T09:06:27;3.7;;;0.8;;
76548;SDS011;65391;52.068;4.542;2022-12-07T09:08:53;3.4;;;0.9;;
76548;SDS011;65391;52.068;4.542;2022-12-07T09:11:17;3.4;;;0.9;;
76548;SDS011;65391;52.068;4.542;2022-12-07T09:13:42;3.4;;;0.9;;
76548;SDS011;65391;52.068;4.542;2022-12-07T09:16:07;3.4;;;0.9;;
76548;SDS011;65391;52.068;4.542;2022-12-07T09:18:32;8.5;;;0.5;;
76548;SDS011;65391;52.068;4.542;2022-12-07T09:20:57;8.5;;;0.5;;
76548;SDS011;65391;52.068;4.542;2022-12-07T09:23:22;8.5;;;0.5;;
76548;SDS011;65391;52.068;4.542;2022-12-07T09:25:47;8.5;;;0.5;;
76548;SDS011;65391;52.068;4.542;2022-12-07T09:28:12;2.3;;;0.5;;
76548;SDS011;65391;52.068;4.542;2022-12-07T09:30:37;2.3;;;0.5;;
76548;SDS011;65391;52.068;4.542;2022-12-07T09:33:02;2.3;;;0.5;;
76548;SDS011;65391;52.068;4.542;2022-12-07T09:35:27;2.3;;;0.5;;
76548;SDS011;65391;52.068;4.542;2022-12-07T09:37:52;2.3;;;0.5;;
76548;SDS011;65391;52.068;4.542;2022-12-07T09:40:17;3.3;;;0.5;;
76548;SDS011;65391;52.068;4.542;2022-12-07T09:42:44;3.3;;;0.5;;
76548;SDS011;65391;52.068;4.542;2022-12-07T09:45:11;3.3;;;0.5;;
76548;SDS011;65391;52.068;4.542;2022-12-07T09:47:32;3.3;;;0.5;;
76548;SDS011;65391;52.068;4.542;2022-12-07T09:50:00;10.9;;;2.6;;
76548;SDS011;65391;52.068;4.542;2022-12-07T09:52:25;10.9;;;2.6;;
76548;SDS011;65391;52.068;4.542;2022-12-07T09:54:48;10.9;;;2.6;;
76548;SDS011;65391;52.068;4.542;2022-12-07T09:57:12;10.9;;;2.6;;
76548;SDS011;65391;52.068;4.542;2022-12-07T09:59:37;4.2;;;0.6;;
76548;SDS011;65391;52.068;4.542;2022-12-07T10:02:21;4.2;;;0.6;;
76548;SDS011;65391;52.068;4.542;2022-12-07T10:04:27;4.2;;;0.6;;
76548;SDS011;65391;52.068;4.542;2022-12-07T10:06:52;4.2;;;0.6;;
76548;SDS011;65391;52.068;4.542;2022-12-07T10:09:18;3.1;;;0.7;;
76548;SDS011;65391;52.068;4.542;2022-12-07T10:11:59;3.1;;;0.7;;
76548;SDS011;65391;52.068;4.542;2022-12-07T10:14:10;3.1;;;0.7;;
76548;SDS011;65391;52.068;4.542;2022-12-07T10:16:37;3.1;;;0.7;;
76548;SDS011;65391;52.068;4.542;2022-12-07T10:18:57;7;;;1.3;;
76548;SDS011;65391;52.068;4.542;2022-12-07T10:21:23;7;;;1.3;;
76548;SDS011;65391;52.068;4.542;2022-12-07T10:23:59;7;;;1.3;;
76548;SDS011;65391;52.068;4.542;2022-12-07T10:26:21;7;;;1.3;;
76548;SDS011;65391;52.068;4.542;2022-12-07T10:28:37;4;;;1.1;;
76548;SDS011;65391;52.068;4.542;2022-12-07T10:31:03;4;;;1.1;;
76548;SDS011;65391;52.068;4.542;2022-12-07T10:33:29;4;;;1.1;;
76548;SDS011;65391;52.068;4.542;2022-12-07T10:35:52;4;;;1.1;;
76548;SDS011;65391;52.068;4.542;2022-12-07T10:38:17;8;;;1.8;;
76548;SDS011;65391;52.068;4.542;2022-12-07T10:40:42;8;;;1.8;;
76548;SDS011;65391;52.068;4.542;2022-12-07T10:43:17;8;;;1.8;;
76548;SDS011;65391;52.068;4.542;2022-12-07T10:45:32;8;;;1.8;;
76548;SDS011;65391;52.068;4.542;2022-12-07T10:48:00;8;;;1.8;;
76548;SDS011;65391;52.068;4.542;2022-12-07T10:50:29;11;;;0.9;;
76548;SDS011;65391;52.068;4.542;2022-12-07T10:52:58;11;;;0.9;;
76548;SDS011;65391;52.068;4.542;2022-12-07T10:55:18;11;;;0.9;;
76548;SDS011;65391;52.068;4.542;2022-12-07T10:57:43;11;;;0.9;;
76548;SDS011;65391;52.068;4.542;2022-12-07T11:00:08;7.5;;;0.8;;
76548;SDS011;65391;52.068;4.542;2022-12-07T11:02:36;7.5;;;0.8;;
76548;SDS011;65391;52.068;4.542;2022-12-07T11:04:59;7.5;;;0.8;;
76548;SDS011;65391;52.068;4.542;2022-12-07T11:07:20;7.5;;;0.8;;
76548;SDS011;65391;52.068;4.542;2022-12-07T11:09:50;4.6;;;0.6;;
76548;SDS011;65391;52.068;4.542;2022-12-07T11:12:09;4.6;;;0.6;;
76548;SDS011;65391;52.068;4.542;2022-12-07T11:14:36;4.6;;;0.6;;
76548;SDS011;65391;52.068;4.542;2022-12-07T11:16:59;4.6;;;0.6;;
76548;SDS011;65391;52.068;4.542;2022-12-07T11:19:30;3.4;;;0.5;;
76548;SDS011;65391;52.068;4.542;2022-12-07T11:21:50;3.4;;;0.5;;
76548;SDS011;65391;52.068;4.542;2022-12-07T11:24:15;3.4;;;0.5;;
76548;SDS011;65391;52.068;4.542;2022-12-07T11:26:45;3.4;;;0.5;;
76548;SDS011;65391;52.068;4.542;2022-12-07T11:29:11;4.7;;;1.1;;
76548;SDS011;65391;52.068;4.542;2022-12-07T11:31:29;4.7;;;1.1;;
76548;SDS011;65391;52.068;4.542;2022-12-07T11:33:53;4.7;;;1.1;;
76548;SDS011;65391;52.068;4.542;2022-12-07T11:36:30;4.7;;;1.1;;
76548;SDS011;65391;52.068;4.542;2022-12-07T11:38:43;4.3;;;1;;
76548;SDS011;65391;52.068;4.542;2022-12-07T11:41:08;4.3;;;1;;
76548;SDS011;65391;52.068;4.542;2022-12-07T11:43:32;4.3;;;1;;
76548;SDS011;65391;52.068;4.542;2022-12-07T11:45:59;4.3;;;1;;
76548;SDS011;65391;52.068;4.542;2022-12-07T11:48:24;7.5;;;0.6;;
76548;SDS011;65391;52.068;4.542;2022-12-07T11:50:48;7.5;;;0.6;;
76548;SDS011;65391;52.068;4.542;2022-12-07T11:53:15;7.5;;;0.6;;
76548;SDS011;65391;52.068;4.542;2022-12-07T11:55:42;7.5;;;0.6;;
76548;SDS011;65391;52.068;4.542;2022-12-07T11:58:04;7.5;;;0.6;;
76548;SDS011;65391;52.068;4.542;2022-12-07T12:00:27;7.8;;;1.2;;
76548;SDS011;65391;52.068;4.542;2022-12-07T12:02:55;7.8;;;1.2;;
76548;SDS011;65391;52.068;4.542;2022-12-07T12:05:18;7.8;;;1.2;;
76548;SDS011;65391;52.068;4.542;2022-12-07T12:07:42;7.8;;;1.2;;
76548;SDS011;65391;52.068;4.542;2022-12-07T12:10:16;1.7;;;0.4;;
76548;SDS011;65391;52.068;4.542;2022-12-07T12:12:42;1.7;;;0.4;;
76548;SDS011;65391;52.068;4.542;2022-12-07T12:15:03;1.7;;;0.4;;
76548;SDS011;65391;52.068;4.542;2022-12-07T12:17:32;1.7;;;0.4;;
76548;SDS011;65391;52.068;4.542;2022-12-07T12:19:58;4.2;;;1;;
76548;SDS011;65391;52.068;4.542;2022-12-07T12:22:14;4.2;;;1;;
76548;SDS011;65391;52.068;4.542;2022-12-07T12:24:37;4.2;;;1;;
76548;SDS011;65391;52.068;4.542;2022-12-07T12:27:03;4.2;;;1;;
76548;SDS011;65391;52.068;4.542;2022-12-07T12:29:28;3.4;;;0.7;;
76548;SDS011;65391;52.068;4.542;2022-12-07T12:32:05;3.4;;;0.7;;
76548;SDS011;65391;52.068;4.542;2022-12-07T12:34:38;3.4;;;0.7;;
76548;SDS011;65391;52.068;4.542;2022-12-07T12:36:44;3.4;;;0.7;;
76548;SDS011;65391;52.068;4.542;2022-12-07T12:39:09;3.3;;;0.9;;
76548;SDS011;65391;52.068;4.542;2022-12-07T12:42:05;3.3;;;0.9;;
76548;SDS011;65391;52.068;4.542;2022-12-07T12:43:57;3.3;;;0.9;;
76548;SDS011;65391;52.068;4.542;2022-12-07T12:46:46;3.3;;;0.9;;
76548;SDS011;65391;52.068;4.542;2022-12-07T12:48:47;3;;;0.5;;
76548;SDS011;65391;52.068;4.542;2022-12-07T12:51:44;3;;;0.5;;
76548;SDS011;65391;52.068;4.542;2022-12-07T12:53:37;3;;;0.5;;
76548;SDS011;65391;52.068;4.542;2022-12-07T12:56:37;3;;;0.5;;
76548;SDS011;65391;52.068;4.542;2022-12-07T12:58:29;3.9;;;0.7;;
76548;SDS011;65391;52.068;4.542;2022-12-07T13:01:37;3.9;;;0.7;;
76548;SDS011;65391;52.068;4.542;2022-12-07T13:03:21;3.9;;;0.7;;
76548;SDS011;65391;52.068;4.542;2022-12-07T13:05:42;3.9;;;0.7;;
76548;SDS011;65391;52.068;4.542;2022-12-07T13:08:12;3.9;;;0.7;;
76548;SDS011;65391;52.068;4.542;2022-12-07T13:10:38;6.2;;;0.7;;
76548;SDS011;65391;52.068;4.542;2022-12-07T13:12:58;6.2;;;0.7;;
76548;SDS011;65391;52.068;4.542;2022-12-07T13:15:39;6.2;;;0.7;;
76548;SDS011;65391;52.068;4.542;2022-12-07T13:18:04;6.2;;;0.7;;
76548;SDS011;65391;52.068;4.542;2022-12-07T13:20:44;2.8;;;0.5;;
76548;SDS011;65391;52.068;4.542;2022-12-07T13:22:41;2.8;;;0.5;;
76548;SDS011;65391;52.068;4.542;2022-12-07T13:25:05;2.8;;;0.5;;
76548;SDS011;65391;52.068;4.542;2022-12-07T13:27:27;2.8;;;0.5;;
76548;SDS011;65391;52.068;4.542;2022-12-07T13:29:52;4.7;;;0.5;;
76548;SDS011;65391;52.068;4.542;2022-12-07T13:32:22;4.7;;;0.5;;
76548;SDS011;65391;52.068;4.542;2022-12-07T13:34:42;4.7;;;0.5;;
76548;SDS011;65391;52.068;4.542;2022-12-07T13:37:10;4.7;;;0.5;;
76548;SDS011;65391;52.068;4.542;2022-12-07T13:39:32;6.1;;;0.6;;
76548;SDS011;65391;52.068;4.542;2022-12-07T13:41:58;6.1;;;0.6;;
76548;SDS011;65391;52.068;4.542;2022-12-07T13:44:23;6.1;;;0.6;;
76548;SDS011;65391;52.068;4.542;2022-12-07T13:46:52;6.1;;;0.6;;
76548;SDS011;65391;52.068;4.542;2022-12-07T13:49:16;5.6;;;1.1;;
76548;SDS011;65391;52.068;4.542;2022-12-07T13:51:37;5.6;;;1.1;;
76548;SDS011;65391;52.068;4.542;2022-12-07T13:54:09;5.6;;;1.1;;
76548;SDS011;65391;52.068;4.542;2022-12-07T13:56:31;5.6;;;1.1;;
76548;SDS011;65391;52.068;4.542;2022-12-07T13:58:52;6;;;0.7;;
76548;SDS011;65391;52.068;4.542;2022-12-07T14:01:17;6;;;0.7;;
76548;SDS011;65391;52.068;4.542;2022-12-07T14:03:42;6;;;0.7;;
76548;SDS011;65391;52.068;4.542;2022-12-07T14:06:18;6;;;0.7;;
76548;SDS011;65391;52.068;4.542;2022-12-07T14:08:32;8.1;;;1.1;;
76548;SDS011;65391;52.068;4.542;2022-12-07T14:10:57;8.1;;;1.1;;
76548;SDS011;65391;52.068;4.542;2022-12-07T14:13:27;8.1;;;1.1;;
76548;SDS011;65391;52.068;4.542;2022-12-07T14:15:49;8.1;;;1.1;;
76548;SDS011;65391;52.068;4.542;2022-12-07T14:18:26;8.1;;;1.1;;
76548;SDS011;65391;52.068;4.542;2022-12-07T14:20:38;6;;;1.3;;
76548;SDS011;65391;52.068;4.542;2022-12-07T14:23:03;6;;;1.3;;
76548;SDS011;65391;52.068;4.542;2022-12-07T14:25:27;6;;;1.3;;
76548;SDS011;65391;52.068;4.542;2022-12-07T14:27:54;6;;;1.3;;
76548;SDS011;65391;52.068;4.542;2022-12-07T14:30:18;4.3;;;0.7;;
76548;SDS011;65391;52.068;4.542;2022-12-07T14:32:43;4.3;;;0.7;;
76548;SDS011;65391;52.068;4.542;2022-12-07T14:35:09;4.3;;;0.7;;
76548;SDS011;65391;52.068;4.542;2022-12-07T14:37:32;4.3;;;0.7;;
76548;SDS011;65391;52.068;4.542;2022-12-07T14:39:57;6;;;0.8;;
76548;SDS011;65391;52.068;4.542;2022-12-07T14:42:24;6;;;0.8;;
76548;SDS011;65391;52.068;4.542;2022-12-07T14:44:47;6;;;0.8;;
76548;SDS011;65391;52.068;4.542;2022-12-07T14:47:13;6;;;0.8;;
76548;SDS011;65391;52.068;4.542;2022-12-07T14:49:38;2.8;;;0.7;;
76548;SDS011;65391;52.068;4.542;2022-12-07T14:52:03;2.8;;;0.7;;
76548;SDS011;65391;52.068;4.542;2022-12-07T14:54:30;2.8;;;0.7;;
76548;SDS011;65391;52.068;4.542;2022-12-07T14:56:52;2.8;;;0.7;;
76548;SDS011;65391;52.068;4.542;2022-12-07T14:59:18;2.5;;;0.7;;
76548;SDS011;65391;52.068;4.542;2022-12-07T15:01:42;2.5;;;0.7;;
76548;SDS011;65391;52.068;4.542;2022-12-07T15:04:08;2.5;;;0.7;;